Portada
METAR-TAF:

METAR-TAF

Aeroports :

Monte Malanotte

Prato Nevoso, Itàlia

latitud: 44-15N, longitud: 007-48E, altitud: 1741 m

Observació

L'informe es va fer fa 4 hores i 49 minuts, a les 17:55 UTC
Vent 2 kt del Nord
Temperatura 26°C
Humitat 65%
Pressió 1020 hPa
Visibilitat 10 km o més
sense núvols per sota de 1500 mi sense presència de cumulonimbus.

METAR: LIMY 241755Z 01002KT CAVOK 26/19 Q1020 RMK SKC VAL FOSCHIA SKC SUP VIS MIN 9999W

Hora: 00:44 (22:44 UTC)


TAF: manca

Observacions i pronòstics meteorològics de més de 4000 aeroports (METAR i TAF).

Les estacions disponibles són els punts grocs i vermells al mapa.

Posi el ratolí al punt desitjat per veure el nom de l'estació.

Feu clic per veure les observacions i els pronòstics meteorològics.

Per canviar el mapa: feu clic els botons verds amb una creu de color negre per apropar; al botó verd amb un guió per allunyar la imatge; o en les fletxes verdes per a mapes adjacents.


METAR-TAF: